sensor_id;sensor_type;location;lat;lon;timestamp;P1;durP1;ratioP1;P2;durP2;ratioP2
43540;SDS011;29549;40.386;-3.710;2022-11-15T00:04:19;1.60;;;1.35;;
43540;SDS011;29549;40.386;-3.710;2022-11-15T00:14:21;1.95;;;1.35;;
43540;SDS011;29549;40.386;-3.710;2022-11-15T00:24:22;3.58;;;1.13;;
43540;SDS011;29549;40.386;-3.710;2022-11-15T00:34:24;2.90;;;1.08;;
43540;SDS011;29549;40.386;-3.710;2022-11-15T00:44:25;2.58;;;1.50;;
43540;SDS011;29549;40.386;-3.710;2022-11-15T00:54:27;1.90;;;1.27;;
43540;SDS011;29549;40.386;-3.710;2022-11-15T01:04:28;1.90;;;1.40;;
43540;SDS011;29549;40.386;-3.710;2022-11-15T01:14:30;3.22;;;1.17;;
43540;SDS011;29549;40.386;-3.710;2022-11-15T01:24:32;2.38;;;1.40;;
43540;SDS011;29549;40.386;-3.710;2022-11-15T01:34:33;3.13;;;1.50;;
43540;SDS011;29549;40.386;-3.710;2022-11-15T01:54:45;3.03;;;1.60;;
43540;SDS011;29549;40.386;-3.710;2022-11-15T02:04:48;1.75;;;1.40;;
43540;SDS011;29549;40.386;-3.710;2022-11-15T02:14:51;2.78;;;1.23;;
43540;SDS011;29549;40.386;-3.710;2022-11-15T02:45:31;1.65;;;0.90;;
43540;SDS011;29549;40.386;-3.710;2022-11-15T02:55:57;2.10;;;1.25;;
43540;SDS011;29549;40.386;-3.710;2022-11-15T03:26:18;1.65;;;1.17;;
43540;SDS011;29549;40.386;-3.710;2022-11-15T03:36:23;1.77;;;1.02;;
43540;SDS011;29549;40.386;-3.710;2022-11-15T03:46:28;2.50;;;1.00;;
43540;SDS011;29549;40.386;-3.710;2022-11-15T03:56:39;2.70;;;1.60;;
43540;SDS011;29549;40.386;-3.710;2022-11-15T04:06:41;2.28;;;1.05;;
43540;SDS011;29549;40.386;-3.710;2022-11-15T04:16:43;1.70;;;1.00;;
43540;SDS011;29549;40.386;-3.710;2022-11-15T04:26:45;1.33;;;1.00;;
43540;SDS011;29549;40.386;-3.710;2022-11-15T04:36:47;1.95;;;1.02;;
43540;SDS011;29549;40.386;-3.710;2022-11-15T04:47:07;2.50;;;1.45;;
43540;SDS011;29549;40.386;-3.710;2022-11-15T04:57:09;2.85;;;1.42;;
43540;SDS011;29549;40.386;-3.710;2022-11-15T05:07:10;1.65;;;1.17;;
43540;SDS011;29549;40.386;-3.710;2022-11-15T05:17:12;2.00;;;1.27;;
43540;SDS011;29549;40.386;-3.710;2022-11-15T05:27:14;1.58;;;1.02;;
43540;SDS011;29549;40.386;-3.710;2022-11-15T05:37:16;2.30;;;1.20;;
43540;SDS011;29549;40.386;-3.710;2022-11-15T05:47:22;2.00;;;1.50;;
43540;SDS011;29549;40.386;-3.710;2022-11-15T05:57:27;2.67;;;1.75;;
43540;SDS011;29549;40.386;-3.710;2022-11-15T06:07:29;2.92;;;2.10;;
43540;SDS011;29549;40.386;-3.710;2022-11-15T06:17:31;2.92;;;1.92;;
43540;SDS011;29549;40.386;-3.710;2022-11-15T06:27:33;2.42;;;1.42;;
43540;SDS011;29549;40.386;-3.710;2022-11-15T06:37:34;2.90;;;1.25;;
43540;SDS011;29549;40.386;-3.710;2022-11-15T06:47:43;1.77;;;1.30;;
43540;SDS011;29549;40.386;-3.710;2022-11-15T06:57:50;1.98;;;1.20;;
43540;SDS011;29549;40.386;-3.710;2022-11-15T07:07:53;1.35;;;0.98;;
43540;SDS011;29549;40.386;-3.710;2022-11-15T07:17:55;2.00;;;1.20;;
43540;SDS011;29549;40.386;-3.710;2022-11-15T07:28:00;1.83;;;1.02;;
43540;SDS011;29549;40.386;-3.710;2022-11-15T07:38:02;2.30;;;1.08;;
43540;SDS011;29549;40.386;-3.710;2022-11-15T07:48:04;2.45;;;1.40;;
43540;SDS011;29549;40.386;-3.710;2022-11-15T07:58:07;4.43;;;2.22;;
43540;SDS011;29549;40.386;-3.710;2022-11-15T08:08:12;2.55;;;1.40;;
43540;SDS011;29549;40.386;-3.710;2022-11-15T08:18:14;2.28;;;1.65;;
43540;SDS011;29549;40.386;-3.710;2022-11-15T08:28:17;2.92;;;1.50;;
43540;SDS011;29549;40.386;-3.710;2022-11-15T08:38:18;2.80;;;1.58;;
43540;SDS011;29549;40.386;-3.710;2022-11-15T08:48:20;2.13;;;1.10;;
43540;SDS011;29549;40.386;-3.710;2022-11-15T08:58:21;3.83;;;1.55;;
43540;SDS011;29549;40.386;-3.710;2022-11-15T09:08:23;3.08;;;1.50;;
43540;SDS011;29549;40.386;-3.710;2022-11-15T09:18:25;2.28;;;1.08;;
43540;SDS011;29549;40.386;-3.710;2022-11-15T09:28:28;2.83;;;1.42;;
43540;SDS011;29549;40.386;-3.710;2022-11-15T09:38:31;2.85;;;1.58;;
43540;SDS011;29549;40.386;-3.710;2022-11-15T09:48:35;1.63;;;0.80;;
43540;SDS011;29549;40.386;-3.710;2022-11-15T10:30:13;2.00;;;0.90;;
43540;SDS011;29549;40.386;-3.710;2022-11-15T10:40:21;2.40;;;0.70;;
43540;SDS011;29549;40.386;-3.710;2022-11-15T10:50:28;2.53;;;0.70;;
43540;SDS011;29549;40.386;-3.710;2022-11-15T11:00:34;1.95;;;1.15;;
43540;SDS011;29549;40.386;-3.710;2022-11-15T11:10:39;2.20;;;1.33;;
43540;SDS011;29549;40.386;-3.710;2022-11-15T11:20:58;5.55;;;1.20;;
43540;SDS011;29549;40.386;-3.710;2022-11-15T11:31:18;4.05;;;1.38;;
43540;SDS011;29549;40.386;-3.710;2022-11-15T11:41:43;4.53;;;1.15;;
43540;SDS011;29549;40.386;-3.710;2022-11-15T11:52:52;8.75;;;1.55;;
43540;SDS011;29549;40.386;-3.710;2022-11-15T12:02:26;3.92;;;1.00;;
43540;SDS011;29549;40.386;-3.710;2022-11-15T12:12:35;4.93;;;1.17;;
43540;SDS011;29549;40.386;-3.710;2022-11-15T12:23:01;5.60;;;3.67;;
43540;SDS011;29549;40.386;-3.710;2022-11-15T12:33:30;5.90;;;1.23;;
43540;SDS011;29549;40.386;-3.710;2022-11-15T12:43:44;3.58;;;0.98;;
43540;SDS011;29549;40.386;-3.710;2022-11-15T12:53:46;4.50;;;1.50;;
43540;SDS011;29549;40.386;-3.710;2022-11-15T13:24:42;3.17;;;1.10;;
43540;SDS011;29549;40.386;-3.710;2022-11-15T13:34:47;5.10;;;1.55;;
43540;SDS011;29549;40.386;-3.710;2022-11-15T13:44:57;3.58;;;0.85;;
43540;SDS011;29549;40.386;-3.710;2022-11-15T13:55:11;3.67;;;1.70;;
43540;SDS011;29549;40.386;-3.710;2022-11-15T14:05:22;5.75;;;1.65;;
43540;SDS011;29549;40.386;-3.710;2022-11-15T14:25:37;3.83;;;1.15;;
43540;SDS011;29549;40.386;-3.710;2022-11-15T14:35:38;4.88;;;1.50;;
43540;SDS011;29549;40.386;-3.710;2022-11-15T14:45:40;3.42;;;1.55;;
43540;SDS011;29549;40.386;-3.710;2022-11-15T14:55:42;2.40;;;1.15;;
43540;SDS011;29549;40.386;-3.710;2022-11-15T15:05:44;5.13;;;1.85;;
43540;SDS011;29549;40.386;-3.710;2022-11-15T15:15:45;3.75;;;0.90;;
43540;SDS011;29549;40.386;-3.710;2022-11-15T15:25:47;3.35;;;1.13;;
43540;SDS011;29549;40.386;-3.710;2022-11-15T15:35:49;3.35;;;1.05;;
43540;SDS011;29549;40.386;-3.710;2022-11-15T15:45:51;4.72;;;1.40;;
43540;SDS011;29549;40.386;-3.710;2022-11-15T15:55:53;6.47;;;1.42;;
43540;SDS011;29549;40.386;-3.710;2022-11-15T16:05:54;8.23;;;1.90;;
43540;SDS011;29549;40.386;-3.710;2022-11-15T16:26:26;4.38;;;2.08;;
43540;SDS011;29549;40.386;-3.710;2022-11-15T16:36:30;5.53;;;1.90;;
43540;SDS011;29549;40.386;-3.710;2022-11-15T16:56:35;2.90;;;1.30;;
43540;SDS011;29549;40.386;-3.710;2022-11-15T17:17:52;3.33;;;1.40;;
43540;SDS011;29549;40.386;-3.710;2022-11-15T17:27:55;6.85;;;2.13;;
43540;SDS011;29549;40.386;-3.710;2022-11-15T17:37:56;5.95;;;2.40;;
43540;SDS011;29549;40.386;-3.710;2022-11-15T17:47:57;7.93;;;2.45;;
43540;SDS011;29549;40.386;-3.710;2022-11-15T17:57:59;3.58;;;2.20;;
43540;SDS011;29549;40.386;-3.710;2022-11-15T18:08:00;6.22;;;2.30;;
43540;SDS011;29549;40.386;-3.710;2022-11-15T18:39:19;5.03;;;2.20;;
43540;SDS011;29549;40.386;-3.710;2022-11-15T18:49:20;4.22;;;2.38;;
43540;SDS011;29549;40.386;-3.710;2022-11-15T18:59:22;3.05;;;2.38;;
43540;SDS011;29549;40.386;-3.710;2022-11-15T19:09:24;4.72;;;1.70;;
43540;SDS011;29549;40.386;-3.710;2022-11-15T19:19:32;5.55;;;3.72;;
43540;SDS011;29549;40.386;-3.710;2022-11-15T19:29:33;2.90;;;2.10;;
43540;SDS011;29549;40.386;-3.710;2022-11-15T19:39:35;4.40;;;3.10;;
43540;SDS011;29549;40.386;-3.710;2022-11-15T19:49:36;4.85;;;2.92;;
43540;SDS011;29549;40.386;-3.710;2022-11-15T19:59:37;5.80;;;4.00;;
43540;SDS011;29549;40.386;-3.710;2022-11-15T20:09:39;4.30;;;3.28;;
43540;SDS011;29549;40.386;-3.710;2022-11-15T20:19:40;7.30;;;4.28;;
43540;SDS011;29549;40.386;-3.710;2022-11-15T20:29:41;5.32;;;4.55;;
43540;SDS011;29549;40.386;-3.710;2022-11-15T20:39:44;6.22;;;3.50;;
43540;SDS011;29549;40.386;-3.710;2022-11-15T20:49:47;4.40;;;2.88;;
43540;SDS011;29549;40.386;-3.710;2022-11-15T20:59:49;4.72;;;2.95;;
43540;SDS011;29549;40.386;-3.710;2022-11-15T21:09:50;5.97;;;4.75;;
43540;SDS011;29549;40.386;-3.710;2022-11-15T21:20:11;5.03;;;3.10;;
43540;SDS011;29549;40.386;-3.710;2022-11-15T21:30:13;3.45;;;2.30;;
43540;SDS011;29549;40.386;-3.710;2022-11-15T21:40:15;3.53;;;2.42;;
43540;SDS011;29549;40.386;-3.710;2022-11-15T21:50:16;6.07;;;3.47;;
43540;SDS011;29549;40.386;-3.710;2022-11-15T22:00:18;4.25;;;2.70;;
43540;SDS011;29549;40.386;-3.710;2022-11-15T22:10:38;4.82;;;2.97;;
43540;SDS011;29549;40.386;-3.710;2022-11-15T22:20:40;4.72;;;2.72;;
43540;SDS011;29549;40.386;-3.710;2022-11-15T22:30:49;3.65;;;2.80;;
43540;SDS011;29549;40.386;-3.710;2022-11-15T22:40:51;3.40;;;2.78;;
43540;SDS011;29549;40.386;-3.710;2022-11-15T22:50:53;3.63;;;2.33;;
43540;SDS011;29549;40.386;-3.710;2022-11-15T23:00:59;1.80;;;1.50;;
43540;SDS011;29549;40.386;-3.710;2022-11-15T23:11:03;3.08;;;1.55;;
43540;SDS011;29549;40.386;-3.710;2022-11-15T23:21:31;3.30;;;1.55;;
43540;SDS011;29549;40.386;-3.710;2022-11-15T23:31:53;3.13;;;1.55;;
43540;SDS011;29549;40.386;-3.710;2022-11-15T23:42:13;1.77;;;1.10;;
43540;SDS011;29549;40.386;-3.710;2022-11-15T23:52:19;1.63;;;1.10;;
